Airfield :
LOGIN :

Register | Disclaimer

   EN    FR    IT 

 










Legend :    VFR   Marginal VFR   IFR   Intensive IFR   Very Intensive IFR
Visi :
Ceiling :
>= 8 km
>= 3000ft
5 to 8 km
1000 to 3000 ft
1500m to 5 km
500 to 1000 ft
800 to 1500m
200 to 500 ft
< 800m
< 200 ft
Symbols :   Thunderstorms  Fog  Heavy snow  Heavy precipitations  Wind > 20 kt
SIGMETs :     Misc.  Thunderstorms  Icing  Turbulence  Mountain Waves  Volcanic Ashes







- Airport Elevation : 204 ft
- IATA code : AGF
- Download approach charts


LFBA - Agen

CURRENT METAR :
  • 181700Z AUTO 12009KT CAVOK 18/07 Q1015 TEMPO 12015G25KT

EXPIRED METARs :
  • 181630Z AUTO 13010KT 100V160 CAVOK 19/07 Q1015 TEMPO 12015G25KT
  • 181600Z AUTO 13012KT 100V160 CAVOK 19/06 Q1015 TEMPO 12015G25KT
  • 181530Z AUTO 13014KT CAVOK 19/07 Q1015 TEMPO 12015G25KT
  • 181500Z AUTO 13014KT CAVOK 19/08 Q1015 TEMPO 12015G25KT
  • 181430Z AUTO 12019KT CAVOK 19/07 Q1015 TEMPO 12015G25KT

TAF TAF LFBA
Valid from the 18 at 15:00 until the 19 at 00:00 UTC


181400Z 1815/1824 12010KT CAVOK
TEMPO 1815/1824 12015G25KT
No reported NOTAMs for that airfield.
2 SIGMETs reported for the Bordeaux FIR (LFBB) :
 
Severe turbulence
LFBB SIGMET 4 VALID 181700/182100 LFPW
LFBB BORDEAUX FIR/UIR SEV TURB FCST WI N4415 E00245 - N4315 E00230 - N4245 E00215 - N4330 E00130 - N4415 E00230 SFC/FL060 STNR NC=
Severe turbulence
LFBB SIGMET 3 VALID 181300/181700 LFPW
LFBB BORDEAUX FIR/UIR SEV TURB FCST WI N4445 E00245 - N4300 E00230 - N4245 E00215 - N4345 E00100 - N4445 E00245 SFC/FL060 STNR NC=



MET'MAP, your aeronautical weather chart ! - Copyright ORBIFLY December 2007 - Disclaimer

ORBIFLY MET'MAP TEAM :

Programming & Development : Alexandra Zaïnal
Concept & Development : Baudouin d'Aumeries
Co-Development & Prog : Marc-Olivier Méhu
Technical & hardware support : Manuel Goepfert

Contact : metmap@orbifly.com




SOURCES & CREDITS :

   NOAA